Time;durP1;ratioP1;P1;durP2;ratioP2;P2;SDS_P1;SDS_P2;PMS_P1;PMS_P2;Temp;Humidity;BMP_temperature;BMP_pressure;BME280_temperature;BME280_humidity;BME280_pressure;Samples;Min_cycle;Max_cycle;Signal;HPM_P1;HPM_P2
2023/02/14 00:01:48;;;;;;;8.00;7.30;;;;;;;;;;5038517;28;20253;-76
2023/02/14 00:04:14;;;;;;;13.40;12.18;;;;;;;;;;5025650;28;20543;-76
2023/02/14 00:06:41;;;;;;;8.07;7.47;;;;;;;;;;5035380;28;20172;-75
2023/02/14 00:09:08;;;;;;;21.52;19.33;;;;;;;;;;5037990;28;20588;-76
2023/02/14 00:11:34;;;;;;;15.20;12.40;;;;;;;;;;5033037;28;20222;-76
2023/02/14 00:16:45;;;;;;;17.27;11.95;;;;;;;;;;5035016;28;20428;-75
2023/02/14 00:19:11;;;;;;;13.07;10.83;;;;;;;;;;5039954;28;20227;-76
2023/02/14 00:21:38;;;;;;;13.50;12.00;;;;;;;;;;5040782;28;21696;-74
2023/02/14 00:24:05;;;;;;;9.52;8.52;;;;;;;;;;5043438;28;20277;-75
2023/02/14 00:26:31;;;;;;;15.23;10.70;;;;;;;;;;5040120;28;20654;-75
2023/02/14 00:28:57;;;;;;;14.18;11.77;;;;;;;;;;5043442;28;21011;-75
2023/02/14 00:31:23;;;;;;;14.33;11.57;;;;;;;;;;5040592;28;20281;-75
2023/02/14 00:33:49;;;;;;;12.68;10.48;;;;;;;;;;5044207;28;20802;-75
2023/02/14 00:36:16;;;;;;;11.70;10.60;;;;;;;;;;5021301;28;20761;-76
2023/02/14 00:38:43;;;;;;;16.33;10.27;;;;;;;;;;5044678;28;20421;-75
2023/02/14 00:41:09;;;;;;;21.27;19.27;;;;;;;;;;5023179;28;20442;-76
2023/02/14 00:43:34;;;;;;;9.93;9.00;;;;;;;;;;5041805;28;20338;-75
2023/02/14 00:46:00;;;;;;;17.00;15.50;;;;;;;;;;5040399;28;20448;-75
2023/02/14 00:48:26;;;;;;;10.10;9.10;;;;;;;;;;5042887;28;20446;-74
2023/02/14 00:50:52;;;;;;;9.97;8.97;;;;;;;;;;5024403;28;20453;-75
2023/02/14 00:53:18;;;;;;;20.35;18.45;;;;;;;;;;5036456;28;20473;-75
2023/02/14 00:55:45;;;;;;;11.00;8.63;;;;;;;;;;5042853;28;20217;-75
2023/02/14 00:58:12;;;;;;;23.93;21.80;;;;;;;;;;5039105;28;20433;-75
2023/02/14 01:00:37;;;;;;;8.83;8.10;;;;;;;;;;5042584;28;20432;-75
2023/02/14 01:03:03;;;;;;;11.27;10.10;;;;;;;;;;5039687;28;20430;-75
2023/02/14 01:05:29;;;;;;;10.03;9.13;;;;;;;;;;5043769;28;20178;-76
2023/02/14 01:07:55;;;;;;;11.67;8.60;;;;;;;;;;5045039;28;20441;-74
2023/02/14 01:10:21;;;;;;;9.90;9.00;;;;;;;;;;5035101;28;21018;-76
2023/02/14 01:12:47;;;;;;;10.53;9.53;;;;;;;;;;5043857;28;20426;-74
2023/02/14 01:15:13;;;;;;;14.43;10.63;;;;;;;;;;5040158;28;20450;-75
2023/02/14 01:17:39;;;;;;;11.83;10.33;;;;;;;;;;5039169;28;20484;-74
2023/02/14 01:20:06;;;;;;;9.32;8.57;;;;;;;;;;5044034;28;20429;-75
2023/02/14 01:22:37;;;;;;;9.13;8.33;;;;;;;;;;5041016;28;20201;-74
2023/02/14 01:25:04;;;;;;;11.82;10.63;;;;;;;;;;5038749;28;20473;-74
2023/02/14 01:27:30;;;;;;;9.95;9.02;;;;;;;;;;5043100;28;20845;-74
2023/02/14 01:29:56;;;;;;;10.65;8.23;;;;;;;;;;5040519;28;20198;-74
2023/02/14 01:32:22;;;;;;;10.50;9.70;;;;;;;;;;5041924;28;20221;-75
2023/02/14 01:34:48;;;;;;;9.80;8.80;;;;;;;;;;5041683;28;20871;-75
2023/02/14 01:37:14;;;;;;;8.93;7.80;;;;;;;;;;5044048;28;20429;-75
2023/02/14 01:39:40;;;;;;;7.80;7.20;;;;;;;;;;5040187;28;20466;-75
2023/02/14 01:42:06;;;;;;;9.27;8.48;;;;;;;;;;5043307;28;20935;-74
2023/02/14 01:44:32;;;;;;;9.67;8.80;;;;;;;;;;5039816;28;20216;-75
2023/02/14 01:47:00;;;;;;;7.97;7.20;;;;;;;;;;5043797;28;20435;-75
2023/02/14 01:49:30;;;;;;;7.63;7.10;;;;;;;;;;5039498;28;20447;-74
2023/02/14 01:52:00;;;;;;;8.05;7.40;;;;;;;;;;5041429;28;20206;-75
2023/02/14 01:54:28;;;;;;;7.70;7.10;;;;;;;;;;5043647;28;20892;-76
2023/02/14 01:56:57;;;;;;;7.57;6.87;;;;;;;;;;5039407;28;21336;-75
2023/02/14 01:59:26;;;;;;;7.95;7.35;;;;;;;;;;5042444;28;20429;-75
2023/02/14 02:01:52;;;;;;;9.75;7.93;;;;;;;;;;5039759;28;20197;-76
2023/02/14 02:04:20;;;;;;;7.20;6.47;;;;;;;;;;5043426;28;20234;-76
2023/02/14 02:06:49;;;;;;;7.80;6.80;;;;;;;;;;5039016;28;20848;-75
2023/02/14 02:09:21;;;;;;;10.07;7.18;;;;;;;;;;5038359;28;20210;-75
2023/02/14 02:11:47;;;;;;;6.50;5.90;;;;;;;;;;5040438;28;20606;-75
2023/02/14 02:14:17;;;;;;;7.43;6.70;;;;;;;;;;5036917;28;20449;-74
2023/02/14 02:16:54;;;;;;;8.10;7.07;;;;;;;;;;5039125;28;20219;-74
2023/02/14 02:19:19;;;;;;;6.53;6.03;;;;;;;;;;5042152;28;20649;-75
2023/02/14 02:21:51;;;;;;;7.77;7.00;;;;;;;;;;5039546;28;20195;-74
2023/02/14 02:24:20;;;;;;;12.30;6.78;;;;;;;;;;5043808;28;20865;-75
2023/02/14 02:26:56;;;;;;;6.88;6.18;;;;;;;;;;5040265;28;20204;-75
2023/02/14 02:29:25;;;;;;;7.20;6.60;;;;;;;;;;5041567;28;20179;-75
2023/02/14 02:32:10;;;;;;;6.80;6.30;;;;;;;;;;5039284;28;20476;-75
2023/02/14 02:34:54;;;;;;;6.63;6.13;;;;;;;;;;5041604;28;20204;-75
2023/02/14 02:37:39;;;;;;;7.27;6.53;;;;;;;;;;5040778;28;20564;-75
2023/02/14 02:40:05;;;;;;;7.57;6.70;;;;;;;;;;5038898;28;20487;-76
2023/02/14 02:42:37;;;;;;;6.50;6.00;;;;;;;;;;5041980;28;20421;-75
2023/02/14 02:45:06;;;;;;;9.43;8.57;;;;;;;;;;5038579;28;20454;-74
2023/02/14 02:47:32;;;;;;;7.63;6.93;;;;;;;;;;5039403;28;20426;-75
2023/02/14 02:53:07;;;;;;;7.43;6.43;;;;;;;;;;5041722;28;20599;-75
2023/02/14 02:58:22;;;;;;;7.70;6.93;;;;;;;;;;5041270;28;20253;-76
2023/02/14 03:00:50;;;;;;;11.47;7.20;;;;;;;;;;5040127;28;20210;-75
2023/02/14 03:06:01;;;;;;;8.73;7.95;;;;;;;;;;5035427;28;21069;-75
2023/02/14 03:08:27;;;;;;;6.63;5.93;;;;;;;;;;5043663;28;20188;-75
2023/02/14 03:10:53;;;;;;;6.97;6.37;;;;;;;;;;5034899;28;21091;-76
2023/02/14 03:13:42;;;;;;;5.90;5.60;;;;;;;;;;5042468;28;20434;-75
2023/02/14 03:16:14;;;;;;;7.15;6.65;;;;;;;;;;5036936;28;20485;-74
2023/02/14 03:21:54;;;;;;;7.03;6.53;;;;;;;;;;5038833;28;20440;-75
2023/02/14 03:24:43;;;;;;;6.85;6.18;;;;;;;;;;5045329;28;20199;-75
2023/02/14 03:27:29;;;;;;;6.57;6.10;;;;;;;;;;5040919;28;20191;-74
2023/02/14 03:29:56;;;;;;;12.10;7.83;;;;;;;;;;5042160;28;20186;-75
2023/02/14 03:32:36;;;;;;;7.50;6.90;;;;;;;;;;5042897;28;20855;-75
2023/02/14 03:35:02;;;;;;;8.52;6.13;;;;;;;;;;5040542;28;21316;-75
2023/02/14 03:37:35;;;;;;;7.63;6.93;;;;;;;;;;5042837;28;20187;-75
2023/02/14 03:40:05;;;;;;;8.82;8.02;;;;;;;;;;5022464;28;20536;-75
2023/02/14 03:42:33;;;;;;;6.88;6.35;;;;;;;;;;5044048;28;20175;-76
2023/02/14 03:45:00;;;;;;;10.13;9.18;;;;;;;;;;5042083;28;20225;-75
2023/02/14 03:47:29;;;;;;;7.07;6.55;;;;;;;;;;5043103;28;20181;-75
2023/02/14 03:49:59;;;;;;;9.75;8.50;;;;;;;;;;5041137;28;20254;-75
2023/02/14 03:52:26;;;;;;;6.30;5.72;;;;;;;;;;5043820;28;20183;-75
2023/02/14 03:54:53;;;;;;;7.47;6.87;;;;;;;;;;5023861;28;20627;-74
2023/02/14 03:57:22;;;;;;;7.07;6.30;;;;;;;;;;5025590;28;20513;-75
2023/02/14 03:59:48;;;;;;;8.68;7.97;;;;;;;;;;5041107;28;21029;-76
2023/02/14 04:02:17;;;;;;;7.10;6.50;;;;;;;;;;5044972;28;20203;-75
2023/02/14 04:04:45;;;;;;;6.35;5.85;;;;;;;;;;5040508;28;21163;-75
2023/02/14 04:07:12;;;;;;;6.30;5.70;;;;;;;;;;5043107;28;20172;-75
2023/02/14 04:09:38;;;;;;;9.48;6.57;;;;;;;;;;5042113;28;20454;-75
2023/02/14 04:12:04;;;;;;;7.72;7.03;;;;;;;;;;5039736;28;20666;-75
2023/02/14 04:14:30;;;;;;;7.20;6.53;;;;;;;;;;5044881;28;20632;-76
2023/02/14 04:19:41;;;;;;;7.63;6.93;;;;;;;;;;5042020;28;20419;-76
2023/02/14 04:22:07;;;;;;;5.77;5.47;;;;;;;;;;5045972;28;20196;-75
2023/02/14 04:24:33;;;;;;;7.82;6.93;;;;;;;;;;5043760;28;20465;-75
2023/02/14 04:27:11;;;;;;;7.83;6.60;;;;;;;;;;5041698;28;20630;-75
2023/02/14 04:29:38;;;;;;;9.07;6.93;;;;;;;;;;5042228;28;20546;-74
2023/02/14 04:32:05;;;;;;;8.32;7.63;;;;;;;;;;5039544;28;20447;-75
2023/02/14 04:34:31;;;;;;;10.23;7.87;;;;;;;;;;5043437;28;20208;-75
2023/02/14 04:36:57;;;;;;;6.03;5.63;;;;;;;;;;5041465;28;20543;-75
2023/02/14 04:39:23;;;;;;;6.90;6.27;;;;;;;;;;5044570;28;20511;-76
2023/02/14 04:41:49;;;;;;;7.07;6.05;;;;;;;;;;5038485;28;20412;-75
2023/02/14 04:44:15;;;;;;;7.07;6.40;;;;;;;;;;5043705;28;20914;-75
2023/02/14 04:46:41;;;;;;;7.50;6.60;;;;;;;;;;5040711;28;20452;-74
2023/02/14 04:49:07;;;;;;;9.03;7.20;;;;;;;;;;5041353;28;20793;-75
2023/02/14 04:51:33;;;;;;;7.00;6.17;;;;;;;;;;5035515;28;20542;-76
2023/02/14 04:53:59;;;;;;;9.20;6.97;;;;;;;;;;5043998;28;20434;-75
2023/02/14 04:56:25;;;;;;;9.23;7.60;;;;;;;;;;5039854;28;20457;-75
2023/02/14 04:58:52;;;;;;;8.88;8.02;;;;;;;;;;5042439;28;20470;-75
2023/02/14 05:01:18;;;;;;;8.75;7.15;;;;;;;;;;5034148;28;21199;-75
2023/02/14 05:03:44;;;;;;;7.50;6.70;;;;;;;;;;5039294;28;20290;-74
2023/02/14 05:06:10;;;;;;;9.48;8.57;;;;;;;;;;5038015;28;20434;-75
2023/02/14 05:08:36;;;;;;;10.00;7.27;;;;;;;;;;5022643;28;20606;-76
2023/02/14 05:11:02;;;;;;;10.47;9.50;;;;;;;;;;5033412;28;20469;-76
2023/02/14 05:13:28;;;;;;;10.63;8.17;;;;;;;;;;5043612;28;20520;-76
2023/02/14 05:15:54;;;;;;;8.50;7.68;;;;;;;;;;5039386;28;20479;-74
2023/02/14 05:18:20;;;;;;;9.50;7.90;;;;;;;;;;5044167;28;20220;-75
2023/02/14 05:20:49;;;;;;;8.40;7.53;;;;;;;;;;5021968;28;20441;-75
2023/02/14 05:23:15;;;;;;;11.38;7.85;;;;;;;;;;5043304;28;20441;-74
2023/02/14 05:25:41;;;;;;;9.00;8.10;;;;;;;;;;5042125;28;20650;-75
2023/02/14 05:28:07;;;;;;;8.07;7.27;;;;;;;;;;5037329;28;20419;-75
2023/02/14 05:30:33;;;;;;;9.70;8.67;;;;;;;;;;5045163;28;20451;-75
2023/02/14 05:32:59;;;;;;;9.23;8.37;;;;;;;;;;5043906;28;20400;-75
2023/02/14 05:35:26;;;;;;;10.97;6.97;;;;;;;;;;5046449;28;20404;-75
2023/02/14 05:37:52;;;;;;;7.93;6.60;;;;;;;;;;5038121;28;20443;-76
2023/02/14 05:40:18;;;;;;;11.35;7.53;;;;;;;;;;5040953;28;20446;-76
2023/02/14 05:42:44;;;;;;;8.87;8.07;;;;;;;;;;5034031;28;20235;-75
2023/02/14 05:45:10;;;;;;;8.68;7.60;;;;;;;;;;5040168;28;20951;-74
2023/02/14 05:47:36;;;;;;;9.73;7.83;;;;;;;;;;5035202;28;20191;-75
2023/02/14 05:50:03;;;;;;;8.47;7.43;;;;;;;;;;5044447;28;20461;-75
2023/02/14 05:52:29;;;;;;;12.03;8.03;;;;;;;;;;5039027;28;21004;-76
2023/02/14 05:54:55;;;;;;;7.10;6.30;;;;;;;;;;5042160;28;20547;-75
2023/02/14 05:57:21;;;;;;;9.53;8.27;;;;;;;;;;5037532;28;20457;-75
2023/02/14 05:59:47;;;;;;;10.33;9.40;;;;;;;;;;5039501;28;20438;-74
2023/02/14 06:02:14;;;;;;;9.43;8.43;;;;;;;;;;5037747;28;20838;-76
2023/02/14 06:04:40;;;;;;;10.88;8.23;;;;;;;;;;5048951;28;20472;-75
2023/02/14 06:07:06;;;;;;;8.80;7.90;;;;;;;;;;5045850;28;20195;-75
2023/02/14 06:09:32;;;;;;;14.13;8.73;;;;;;;;;;5045706;28;20621;-76
2023/02/14 06:11:58;;;;;;;13.03;8.30;;;;;;;;;;5042890;28;20510;-76
2023/02/14 06:14:24;;;;;;;7.75;6.97;;;;;;;;;;5048046;28;20433;-75
2023/02/14 06:16:50;;;;;;;9.13;8.25;;;;;;;;;;5046429;28;20199;-77
2023/02/14 06:19:16;;;;;;;11.40;8.98;;;;;;;;;;5046892;28;20204;-75
2023/02/14 06:21:42;;;;;;;9.20;8.30;;;;;;;;;;5044405;28;20207;-75
2023/02/14 06:24:08;;;;;;;19.53;17.70;;;;;;;;;;5042403;28;20824;-75
2023/02/14 06:26:35;;;;;;;10.73;9.43;;;;;;;;;;5049859;28;20438;-74
2023/02/14 06:29:01;;;;;;;20.37;8.13;;;;;;;;;;5046843;28;20430;-75
2023/02/14 06:31:27;;;;;;;9.67;8.67;;;;;;;;;;5025750;28;20405;-75
2023/02/14 06:33:53;;;;;;;11.05;9.38;;;;;;;;;;5043975;28;20854;-75
2023/02/14 06:36:20;;;;;;;14.10;9.50;;;;;;;;;;5022335;28;20483;-75
2023/02/14 06:38:49;;;;;;;12.48;9.80;;;;;;;;;;5046433;28;20477;-75
2023/02/14 06:41:16;;;;;;;9.03;8.33;;;;;;;;;;5023027;28;20540;-76
2023/02/14 06:43:42;;;;;;;16.63;9.97;;;;;;;;;;5043820;28;20460;-77
2023/02/14 06:46:11;;;;;;;11.52;9.68;;;;;;;;;;5016873;28;20471;-79
2023/02/14 06:48:37;;;;;;;13.18;9.88;;;;;;;;;;5035007;28;21091;-75
2023/02/14 06:51:04;;;;;;;18.60;11.00;;;;;;;;;;5037263;28;20234;-76
2023/02/14 06:53:30;;;;;;;16.58;11.65;;;;;;;;;;5043771;28;21040;-76
2023/02/14 06:55:56;;;;;;;14.47;11.20;;;;;;;;;;5045382;28;20281;-74
2023/02/14 06:58:22;;;;;;;13.50;9.43;;;;;;;;;;5049814;28;20436;-76
2023/02/14 07:00:49;;;;;;;16.53;10.13;;;;;;;;;;5046737;28;20422;-75
2023/02/14 07:03:15;;;;;;;12.52;9.80;;;;;;;;;;5050360;28;20948;-76
2023/02/14 07:05:41;;;;;;;11.00;9.27;;;;;;;;;;5042829;28;20203;-75
2023/02/14 07:08:07;;;;;;;12.88;10.57;;;;;;;;;;5055096;28;20412;-74
2023/02/14 07:10:34;;;;;;;16.13;10.85;;;;;;;;;;5043054;28;20618;-76
2023/02/14 07:13:00;;;;;;;17.87;11.37;;;;;;;;;;5022684;28;20607;-77
2023/02/14 07:15:26;;;;;;;10.88;9.73;;;;;;;;;;5043068;28;20448;-76
2023/02/14 07:17:52;;;;;;;15.80;10.95;;;;;;;;;;5046354;28;20171;-76
2023/02/14 07:20:18;;;;;;;12.80;10.47;;;;;;;;;;5045541;28;20367;-76
2023/02/14 07:22:44;;;;;;;13.98;12.57;;;;;;;;;;5044876;28;20434;-76
2023/02/14 07:25:11;;;;;;;18.38;12.95;;;;;;;;;;5053296;28;20194;-76
2023/02/14 07:27:36;;;;;;;21.98;13.43;;;;;;;;;;5028465;28;20203;-75
2023/02/14 07:30:03;;;;;;;24.10;13.90;;;;;;;;;;5049768;28;20216;-75
2023/02/14 07:32:29;;;;;;;25.35;13.35;;;;;;;;;;5047218;28;20510;-74
2023/02/14 07:34:55;;;;;;;20.13;11.13;;;;;;;;;;5029598;28;20199;-76
2023/02/14 07:37:21;;;;;;;21.27;13.18;;;;;;;;;;5046740;28;21051;-75
2023/02/14 07:39:47;;;;;;;18.90;12.95;;;;;;;;;;5047947;28;20203;-77
2023/02/14 07:42:13;;;;;;;27.30;12.57;;;;;;;;;;5045546;28;20262;-75
2023/02/14 07:44:39;;;;;;;16.83;13.37;;;;;;;;;;5046882;28;20289;-76
2023/02/14 07:47:09;;;;;;;21.70;14.50;;;;;;;;;;5044634;28;20961;-76
2023/02/14 07:49:36;;;;;;;24.07;15.30;;;;;;;;;;5044331;28;20524;-76
2023/02/14 07:52:02;;;;;;;26.02;13.95;;;;;;;;;;5049924;28;20461;-76
2023/02/14 07:54:28;;;;;;;22.77;15.40;;;;;;;;;;5017875;28;20541;-76
2023/02/14 07:56:54;;;;;;;25.60;16.47;;;;;;;;;;5045028;28;20458;-77
2023/02/14 07:59:20;;;;;;;22.43;14.00;;;;;;;;;;5049202;28;20454;-75
2023/02/14 08:01:46;;;;;;;26.27;16.03;;;;;;;;;;5046449;28;20443;-76
2023/02/14 08:04:15;;;;;;;21.60;13.80;;;;;;;;;;5043200;28;20826;-76
2023/02/14 08:06:41;;;;;;;18.97;12.93;;;;;;;;;;5033247;28;20418;-75
2023/02/14 08:09:09;;;;;;;20.73;13.43;;;;;;;;;;5054815;28;20501;-78
2023/02/14 08:14:20;;;;;;;18.30;11.93;;;;;;;;;;5047012;28;20447;-76
2023/02/14 08:16:46;;;;;;;18.43;10.83;;;;;;;;;;5046423;28;20456;-77
2023/02/14 08:19:12;;;;;;;18.43;12.07;;;;;;;;;;5042656;28;20439;-76
2023/02/14 08:21:38;;;;;;;22.77;13.83;;;;;;;;;;5036562;28;20693;-75
2023/02/14 08:24:04;;;;;;;20.53;16.50;;;;;;;;;;5048294;28;21068;-77
2023/02/14 08:26:30;;;;;;;19.23;13.17;;;;;;;;;;5049143;28;20425;-75
2023/02/14 08:28:56;;;;;;;16.70;12.50;;;;;;;;;;5026402;28;20558;-76
2023/02/14 08:31:26;;;;;;;24.03;14.90;;;;;;;;;;5051516;28;20438;-76
2023/02/14 08:33:52;;;;;;;20.03;14.67;;;;;;;;;;5049011;28;20456;-77
2023/02/14 08:36:18;;;;;;;20.57;14.57;;;;;;;;;;5052975;28;20491;-76
2023/02/14 08:38:48;;;;;;;21.97;14.77;;;;;;;;;;5048955;28;20939;-76
2023/02/14 08:41:14;;;;;;;21.70;15.63;;;;;;;;;;5052389;28;20432;-75
2023/02/14 08:43:40;;;;;;;24.77;14.83;;;;;;;;;;5047254;28;20568;-76
2023/02/14 08:46:07;;;;;;;22.53;14.93;;;;;;;;;;5030757;28;20509;-76
2023/02/14 08:48:34;;;;;;;23.87;13.70;;;;;;;;;;5041837;28;20530;-76
2023/02/14 08:51:03;;;;;;;32.13;15.87;;;;;;;;;;5048078;28;20448;-75
2023/02/14 08:53:29;;;;;;;25.47;14.40;;;;;;;;;;5046023;28;20496;-77
2023/02/14 08:55:56;;;;;;;21.17;14.10;;;;;;;;;;5027223;28;20892;-77
2023/02/14 08:58:22;;;;;;;27.50;15.53;;;;;;;;;;5042954;28;20830;-76
2023/02/14 09:00:48;;;;;;;21.53;15.90;;;;;;;;;;5051249;28;20501;-76
2023/02/14 09:03:14;;;;;;;23.03;15.03;;;;;;;;;;5043626;28;20421;-76
2023/02/14 09:05:40;;;;;;;21.30;13.67;;;;;;;;;;5045452;28;20817;-77
2023/02/14 09:08:06;;;;;;;24.87;14.77;;;;;;;;;;5026104;28;20777;-75
2023/02/14 09:10:32;;;;;;;21.73;15.63;;;;;;;;;;5047188;28;20449;-77
2023/02/14 09:12:58;;;;;;;24.03;15.67;;;;;;;;;;5042883;28;20445;-75
2023/02/14 09:15:27;;;;;;;23.70;15.20;;;;;;;;;;5044445;28;20429;-76
2023/02/14 09:17:53;;;;;;;23.43;15.60;;;;;;;;;;5037505;28;20832;-77
2023/02/14 09:20:19;;;;;;;21.73;14.20;;;;;;;;;;5048400;28;20449;-77
2023/02/14 09:22:45;;;;;;;16.93;12.47;;;;;;;;;;5024009;28;20426;-77
2023/02/14 09:25:12;;;;;;;15.83;11.57;;;;;;;;;;5044585;28;20461;-75
2023/02/14 09:27:38;;;;;;;14.70;11.90;;;;;;;;;;5045996;28;20436;-76
2023/02/14 09:30:05;;;;;;;14.00;10.60;;;;;;;;;;5042560;28;20898;-76
2023/02/14 09:32:31;;;;;;;14.97;10.53;;;;;;;;;;5051588;28;20405;-76
2023/02/14 09:40:26;;;;;;;14.47;12.87;;;;;;;;;;5046380;28;20560;-77
2023/02/14 09:42:52;;;;;;;16.80;12.57;;;;;;;;;;5043353;28;20853;-76
2023/02/14 09:45:24;;;;;;;14.27;12.47;;;;;;;;;;5044700;28;21105;-79
2023/02/14 09:47:50;;;;;;;14.57;12.87;;;;;;;;;;5043146;28;20457;-76
2023/02/14 09:50:20;;;;;;;16.67;13.93;;;;;;;;;;5026481;28;20405;-77
2023/02/14 09:52:49;;;;;;;17.70;13.93;;;;;;;;;;5037043;28;20398;-78
2023/02/14 09:55:16;;;;;;;13.70;12.00;;;;;;;;;;5036239;28;20429;-78
2023/02/14 09:57:43;;;;;;;17.00;11.33;;;;;;;;;;5044613;28;21123;-77
2023/02/14 10:00:28;;;;;;;20.47;13.77;;;;;;;;;;5046465;28;20912;-77
2023/02/14 10:03:02;;;;;;;16.23;13.20;;;;;;;;;;5046751;28;20791;-76
2023/02/14 10:05:30;;;;;;;21.77;13.77;;;;;;;;;;5037899;28;20943;-77
2023/02/14 10:07:56;;;;;;;17.77;13.07;;;;;;;;;;5018403;28;20433;-77
2023/02/14 10:10:33;;;;;;;18.10;12.50;;;;;;;;;;5038797;28;20457;-78
2023/02/14 10:13:17;;;;;;;14.03;12.47;;;;;;;;;;5041844;28;20473;-78
2023/02/14 10:15:45;;;;;;;18.30;12.43;;;;;;;;;;5025313;28;20999;-76
2023/02/14 10:18:18;;;;;;;12.60;11.47;;;;;;;;;;5040562;28;20472;-77
2023/02/14 10:20:46;;;;;;;12.70;11.40;;;;;;;;;;5045906;28;20457;-76
2023/02/14 10:23:21;;;;;;;22.00;12.17;;;;;;;;;;5040397;28;20541;-76
2023/02/14 10:25:53;;;;;;;20.00;14.77;;;;;;;;;;5043980;28;20461;-77
2023/02/14 10:28:23;;;;;;;17.67;11.67;;;;;;;;;;5049558;28;20500;-77
2023/02/14 10:30:57;;;;;;;18.80;13.33;;;;;;;;;;5043515;28;20472;-76
2023/02/14 10:33:27;;;;;;;13.93;12.40;;;;;;;;;;5045512;28;20448;-76
2023/02/14 10:36:13;;;;;;;19.00;13.60;;;;;;;;;;5028956;28;20958;-76
2023/02/14 10:38:45;;;;;;;14.40;12.40;;;;;;;;;;5037877;28;20445;-76
2023/02/14 10:41:14;;;;;;;17.20;13.27;;;;;;;;;;5036242;28;20533;-76
2023/02/14 10:43:47;;;;;;;17.20;13.33;;;;;;;;;;5047140;28;20477;-77
2023/02/14 10:46:23;;;;;;;15.43;14.03;;;;;;;;;;5040821;28;20787;-76
2023/02/14 10:48:49;;;;;;;17.37;12.40;;;;;;;;;;5038192;28;20491;-75
2023/02/14 10:51:29;;;;;;;18.30;13.63;;;;;;;;;;5025600;28;20465;-76
2023/02/14 10:54:14;;;;;;;15.07;13.30;;;;;;;;;;5049014;28;20437;-78
2023/02/14 10:56:42;;;;;;;14.70;13.20;;;;;;;;;;5042579;28;20417;-77
2023/02/14 10:59:26;;;;;;;15.30;13.60;;;;;;;;;;5047518;28;20483;-78
2023/02/14 11:01:53;;;;;;;18.80;14.83;;;;;;;;;;5040668;28;20501;-77
2023/02/14 11:04:21;;;;;;;16.53;15.00;;;;;;;;;;5042857;28;20679;-76
2023/02/14 11:06:49;;;;;;;14.37;13.07;;;;;;;;;;5035008;28;20432;-77
2023/02/14 11:09:15;;;;;;;16.80;13.30;;;;;;;;;;5038382;28;20433;-75
2023/02/14 11:11:44;;;;;;;16.40;13.27;;;;;;;;;;5033020;28;20556;-76
2023/02/14 11:14:19;;;;;;;15.73;14.20;;;;;;;;;;5045424;28;20600;-77
2023/02/14 11:16:50;;;;;;;15.97;14.50;;;;;;;;;;5032463;28;21228;-76
2023/02/14 11:19:20;;;;;;;16.07;14.37;;;;;;;;;;5043305;28;20413;-75
2023/02/14 11:21:47;;;;;;;16.93;14.20;;;;;;;;;;5049490;28;20426;-75
2023/02/14 11:24:33;;;;;;;15.00;13.40;;;;;;;;;;5049747;28;20445;-76
2023/02/14 11:27:19;;;;;;;17.67;14.57;;;;;;;;;;5039150;28;20425;-76
2023/02/14 11:29:51;;;;;;;19.40;13.50;;;;;;;;;;5043774;28;20420;-76
2023/02/14 11:32:23;;;;;;;15.43;12.97;;;;;;;;;;5021036;28;20458;-76
2023/02/14 11:34:54;;;;;;;13.90;12.60;;;;;;;;;;5022866;28;20455;-76
2023/02/14 11:37:24;;;;;;;16.27;14.50;;;;;;;;;;5039554;28;20422;-76
2023/02/14 11:39:51;;;;;;;14.00;12.63;;;;;;;;;;5047909;28;21544;-79
2023/02/14 11:42:35;;;;;;;15.00;13.50;;;;;;;;;;5038330;28;20445;-79
2023/02/14 11:45:03;;;;;;;14.60;13.20;;;;;;;;;;5047716;28;20464;-77
2023/02/14 11:47:31;;;;;;;17.13;14.73;;;;;;;;;;5046545;28;20446;-79
2023/02/14 11:50:02;;;;;;;14.77;13.23;;;;;;;;;;5048635;28;20417;-75
2023/02/14 11:52:29;;;;;;;13.80;12.40;;;;;;;;;;5051594;28;20476;-77
2023/02/14 11:54:56;;;;;;;16.97;13.90;;;;;;;;;;5027136;28;20449;-77
2023/02/14 11:57:37;;;;;;;15.50;13.90;;;;;;;;;;5023897;28;20450;-78
2023/02/14 12:00:10;;;;;;;13.73;12.43;;;;;;;;;;5047796;28;20421;-76
2023/02/14 12:02:47;;;;;;;16.83;13.00;;;;;;;;;;5023904;28;20533;-78
2023/02/14 12:05:16;;;;;;;16.63;13.17;;;;;;;;;;5058424;28;20967;-76
2023/02/14 12:07:43;;;;;;;15.30;13.80;;;;;;;;;;5031949;28;20451;-76
2023/02/14 12:10:15;;;;;;;13.30;12.10;;;;;;;;;;5023166;28;20484;-76
2023/02/14 12:13:01;;;;;;;15.73;14.13;;;;;;;;;;5041938;28;21022;-78
2023/02/14 12:15:33;;;;;;;13.40;12.27;;;;;;;;;;5032420;28;20426;-77
2023/02/14 12:18:12;;;;;;;16.00;13.37;;;;;;;;;;5038064;28;20425;-76
2023/02/14 12:20:43;;;;;;;12.53;11.37;;;;;;;;;;5045288;28;20413;-78
2023/02/14 12:23:16;;;;;;;13.40;12.20;;;;;;;;;;5042560;28;20982;-76
2023/02/14 12:25:47;;;;;;;14.93;12.87;;;;;;;;;;5047372;28;20453;-77
2023/02/14 12:28:15;;;;;;;14.33;12.30;;;;;;;;;;5020834;28;20445;-77
2023/02/14 12:30:44;;;;;;;16.03;12.87;;;;;;;;;;5026881;28;20418;-78
2023/02/14 12:33:21;;;;;;;13.10;11.90;;;;;;;;;;5042459;28;20465;-77
2023/02/14 12:36:06;;;;;;;18.50;12.77;;;;;;;;;;5038614;28;20475;-77
2023/02/14 12:38:41;;;;;;;12.77;11.63;;;;;;;;;;5051627;28;20434;-77
2023/02/14 12:41:10;;;;;;;13.37;12.03;;;;;;;;;;5044725;28;20764;-77
2023/02/14 12:43:49;;;;;;;13.30;11.73;;;;;;;;;;5045562;28;20812;-76
2023/02/14 12:46:15;;;;;;;12.57;11.47;;;;;;;;;;5042586;28;20970;-79
2023/02/14 12:49:00;;;;;;;14.23;12.73;;;;;;;;;;5045283;28;20861;-77
2023/02/14 12:51:29;;;;;;;14.40;12.27;;;;;;;;;;5024493;28;20868;-76
2023/02/14 12:53:55;;;;;;;16.33;12.13;;;;;;;;;;5045556;28;20426;-76
2023/02/14 12:56:21;;;;;;;14.00;12.70;;;;;;;;;;5047526;28;20432;-79
2023/02/14 12:59:05;;;;;;;12.97;11.77;;;;;;;;;;5028470;28;20501;-77
2023/02/14 13:01:57;;;;;;;15.20;12.10;;;;;;;;;;5041724;28;20948;-77
2023/02/14 13:04:26;;;;;;;15.07;13.70;;;;;;;;;;5037185;28;20548;-76
2023/02/14 13:07:11;;;;;;;13.53;12.13;;;;;;;;;;5031031;28;20453;-78
2023/02/14 13:09:55;;;;;;;16.17;14.67;;;;;;;;;;5044781;28;20457;-78
2023/02/14 13:12:40;;;;;;;14.10;12.70;;;;;;;;;;5042106;28;20765;-77
2023/02/14 13:15:15;;;;;;;17.13;14.07;;;;;;;;;;5055120;28;20444;-78
2023/02/14 13:17:50;;;;;;;18.90;13.63;;;;;;;;;;5038942;28;20433;-78
2023/02/14 13:20:37;;;;;;;13.57;12.27;;;;;;;;;;5036629;28;20784;-78
2023/02/14 13:23:18;;;;;;;14.73;12.57;;;;;;;;;;5016384;28;20425;-76
2023/02/14 13:25:51;;;;;;;16.63;14.93;;;;;;;;;;5039510;28;20457;-78
2023/02/14 13:28:18;;;;;;;12.40;11.20;;;;;;;;;;5026961;28;20847;-77
2023/02/14 13:30:44;;;;;;;12.80;11.50;;;;;;;;;;5046743;28;20516;-78
2023/02/14 13:33:31;;;;;;;12.63;11.53;;;;;;;;;;5021414;28;20454;-77
2023/02/14 13:35:59;;;;;;;13.47;12.07;;;;;;;;;;5026138;28;20433;-77
2023/02/14 13:38:26;;;;;;;13.00;11.80;;;;;;;;;;5044592;28;20445;-78
2023/02/14 13:40:53;;;;;;;13.63;12.20;;;;;;;;;;5026397;28;20440;-78
2023/02/14 13:43:37;;;;;;;14.47;12.90;;;;;;;;;;5041887;28;20894;-79
2023/02/14 13:46:06;;;;;;;16.17;12.37;;;;;;;;;;5028640;28;21012;-78
2023/02/14 13:48:32;;;;;;;15.00;13.40;;;;;;;;;;5042889;28;20401;-77
2023/02/14 13:51:08;;;;;;;13.20;11.83;;;;;;;;;;5048302;28;20424;-76
2023/02/14 13:53:40;;;;;;;14.70;12.33;;;;;;;;;;5017643;28;20442;-80
2023/02/14 13:56:06;;;;;;;14.13;12.50;;;;;;;;;;5041994;28;20406;-78
2023/02/14 13:58:32;;;;;;;12.83;11.63;;;;;;;;;;5019509;28;20434;-77
2023/02/14 14:01:01;;;;;;;21.80;14.73;;;;;;;;;;5040519;28;20410;-77
2023/02/14 14:03:27;;;;;;;13.53;12.13;;;;;;;;;;5022600;28;20524;-77
2023/02/14 14:06:19;;;;;;;21.60;12.83;;;;;;;;;;5049785;28;20536;-79
2023/02/14 14:08:50;;;;;;;14.80;13.10;;;;;;;;;;5052208;28;20460;-78
2023/02/14 14:11:21;;;;;;;22.33;13.33;;;;;;;;;;5028793;28;20529;-78
2023/02/14 14:13:50;;;;;;;14.63;13.10;;;;;;;;;;5031714;28;20441;-78
2023/02/14 14:16:23;;;;;;;17.37;14.30;;;;;;;;;;5024321;28;20959;-77
2023/02/14 14:19:04;;;;;;;14.63;13.23;;;;;;;;;;5026449;28;20450;-75
2023/02/14 14:21:32;;;;;;;15.97;14.30;;;;;;;;;;5026983;28;20449;-76
2023/02/14 14:24:07;;;;;;;13.97;12.67;;;;;;;;;;5025705;28;20464;-77
2023/02/14 14:26:37;;;;;;;18.93;14.30;;;;;;;;;;5009656;28;20433;-77
2023/02/14 14:29:10;;;;;;;14.10;12.60;;;;;;;;;;5036105;28;21209;-76
2023/02/14 14:31:36;;;;;;;13.93;12.70;;;;;;;;;;5019204;28;21150;-77
2023/02/14 14:34:02;;;;;;;20.23;14.40;;;;;;;;;;5034446;28;20731;-76
2023/02/14 14:36:28;;;;;;;14.03;12.60;;;;;;;;;;5039388;28;20450;-75
2023/02/14 14:38:54;;;;;;;17.63;14.00;;;;;;;;;;5024444;28;20449;-76
2023/02/14 14:41:27;;;;;;;16.03;14.43;;;;;;;;;;5033355;28;20442;-77
2023/02/14 14:43:53;;;;;;;14.20;12.77;;;;;;;;;;5013225;28;20463;-77
2023/02/14 14:46:19;;;;;;;20.67;13.77;;;;;;;;;;5031914;28;20480;-77
2023/02/14 14:48:53;;;;;;;20.07;14.77;;;;;;;;;;5032559;28;20468;-75
2023/02/14 14:51:27;;;;;;;19.20;13.40;;;;;;;;;;5021226;28;20426;-76
2023/02/14 14:53:56;;;;;;;15.90;13.20;;;;;;;;;;5030100;28;21221;-75
2023/02/14 14:56:26;;;;;;;13.93;12.50;;;;;;;;;;5030744;28;20920;-76
2023/02/14 14:58:52;;;;;;;18.47;13.80;;;;;;;;;;5028363;28;20462;-77
2023/02/14 15:01:28;;;;;;;19.27;13.53;;;;;;;;;;5026546;28;21742;-78
2023/02/14 15:03:54;;;;;;;17.90;14.43;;;;;;;;;;5026013;28;20477;-78